Time,TemperatureF,DewpointF,PressureIn,WindDirection,WindDirectionDegrees,WindSpeedMPH,WindSpeedGustMPH,Humidity,HourlyPrecipIn,Conditions,Clouds,dailyrainin,SoftwareType,DateUTC
2013-07-02 00:10:00,76.0,59.0,-100.00,NW,310,8.0,13.0,55,-99.99,,,-99.99,,2013-07-02 07:10:00,
2013-07-02 02:10:00,72.0,59.0,-100.00,NW,315,5.0,13.0,63,-99.99,,,-99.99,,2013-07-02 09:10:00,
2013-07-02 02:11:00,72.0,59.0,-100.00,North,360,3.0,9.0,63,-99.99,,,-99.99,,2013-07-02 09:11:00,
2013-07-02 03:01:00,72.0,59.0,-100.00,NW,315,5.0,13.0,63,-99.99,,,-99.99,,2013-07-02 10:01:00,
2013-07-02 04:11:00,70.0,58.0,-100.00,NW,310,3.0,13.0,65,-99.99,,,-99.99,,2013-07-02 11:11:00,
2013-07-02 05:10:00,68.0,58.0,-100.00,North,355,6.0,13.0,70,-99.99,,,-99.99,,2013-07-02 12:10:00,
2013-07-02 07:10:00,70.0,59.0,-100.00,NW,315,6.0,10.0,68,-99.99,,,-99.99,,2013-07-02 14:10:00,
2013-07-02 07:11:00,68.0,58.0,-100.00,NNW,330,6.0,12.0,70,-99.99,,,-99.99,,2013-07-02 14:11:00,
2013-07-02 09:12:00,75.0,61.0,-100.00,NW,320,3.0,8.0,61,-99.99,,,-99.99,,2013-07-02 16:12:00,
2013-07-02 09:20:00,81.0,65.0,-100.00,North,10,2.0,7.0,58,-99.99,,,-99.99,,2013-07-02 16:20:00,
2013-07-02 10:10:00,88.0,64.0,-100.00,North,360,2.0,9.0,44,-99.99,,,-99.99,,2013-07-02 17:10:00,
2013-07-02 10:11:00,81.0,65.0,-100.00,North,10,2.0,7.0,58,-99.99,,,-99.99,,2013-07-02 17:11:00,
2013-07-02 12:11:00,93.0,63.0,-100.00,WNW,290,5.0,8.0,37,-99.99,,,-99.99,,2013-07-02 19:11:00,
2013-07-02 13:10:00,101.0,61.0,-100.00,North,10,2.0,6.0,27,-99.99,,,-99.99,,2013-07-02 20:10:00,
2013-07-02 15:10:00,104.0,61.0,-100.00,North,360,1.0,5.0,24,-99.99,,,-99.99,,2013-07-02 22:10:00,
2013-07-02 15:11:00,104.0,61.0,-100.00,SW,235,3.0,5.0,24,-99.99,,,-99.99,,2013-07-02 22:11:00,
2013-07-02 17:11:00,101.0,59.0,-100.00,NNW,340,5.0,14.0,25,-99.99,,,-99.99,,2013-07-03 00:11:00,
2013-07-02 18:10:00,96.0,57.0,-100.00,North,360,3.0,15.0,27,-99.99,,,-99.99,,2013-07-03 01:10:00,
2013-07-02 20:10:00,87.0,51.0,-100.00,North,360,3.0,12.0,29,-99.99,,,-99.99,,2013-07-03 03:10:00,
2013-07-02 20:12:00,91.0,54.0,-100.00,NNW,335,5.0,15.0,28,-99.99,,,-99.99,,2013-07-03 03:12:00,
2013-07-02 22:01:00,83.0,49.0,-100.00,West,260,2.0,9.0,30,-99.99,,,-99.99,,2013-07-03 05:01:00,
2013-07-02 22:11:00,83.0,49.0,-100.00,West,260,2.0,9.0,30,-99.99,,,-99.99,,2013-07-03 05:11:00,
2013-07-02 22:20:00,79.0,47.0,-100.00,WNW,295,6.0,9.0,32,-99.99,,,-99.99,,2013-07-03 05:20:00,
2013-07-02 23:10:00,80.0,49.0,-100.00,WNW,295,9.0,15.0,33,-99.99,,,-99.99,,2013-07-03 06:10:00,